Time;durP1;ratioP1;P1;durP2;ratioP2;P2;SDS_P1;SDS_P2;PMS_P1;PMS_P2;Temp;Humidity;BMP_temperature;BMP_pressure;BME280_temperature;BME280_humidity;BME280_pressure;Samples;Min_cycle;Max_cycle;Signal;HPM_P1;HPM_P2
2022/02/25 00:00:21;;;;;;;;;;;6.70;95.10;;;;;;5000955;28;20412;-81
2022/02/25 00:02:46;;;;;;;5.75;1.48;;;6.70;95.20;;;;;;4995927;28;20371;-82
2022/02/25 00:05:12;;;;;;;7.38;1.65;;;6.50;95.30;;;;;;4995154;28;20041;-81
2022/02/25 00:07:38;;;;;;;4.05;1.40;;;6.50;95.40;;;;;;4994883;28;20116;-82
2022/02/25 00:10:05;;;;;;;7.28;1.42;;;6.40;95.30;;;;;;4995429;28;20037;-81
2022/02/25 00:12:31;;;;;;;9.45;1.50;;;6.30;95.30;;;;;;5001428;28;20029;-81
2022/02/25 00:14:57;;;;;;;5.38;1.20;;;6.30;95.40;;;;;;4996923;28;20117;-80
2022/02/25 00:17:22;;;;;;;9.40;1.35;;;6.30;95.40;;;;;;4996756;28;20122;-81
2022/02/25 00:19:48;;;;;;;5.88;1.50;;;6.30;95.30;;;;;;4996980;28;20038;-80
2022/02/25 00:22:13;;;;;;;8.20;1.38;;;6.30;95.40;;;;;;4996578;28;20049;-80
2022/02/25 00:24:39;;;;;;;6.55;1.27;;;6.20;95.40;;;;;;4997455;28;20411;-81
2022/02/25 00:27:05;;;;;;;5.15;1.25;;;6.30;95.40;;;;;;4997128;28;20026;-79
2022/02/25 00:29:30;;;;;;;6.70;1.25;;;6.40;95.30;;;;;;4994706;28;20030;-81
2022/02/25 00:31:56;;;;;;;9.65;1.20;;;6.40;95.10;;;;;;4995167;28;20444;-80
2022/02/25 00:34:22;;;;;;;5.30;1.30;;;6.30;95.10;;;;;;4994209;28;20105;-82
2022/02/25 00:36:47;;;;;;;7.65;1.33;;;6.40;95.00;;;;;;5011001;28;20515;-81
2022/02/25 00:39:13;;;;;;;10.23;1.30;;;6.40;94.90;;;;;;4998524;28;20124;-81
2022/02/25 00:41:39;;;;;;;5.90;1.73;;;6.20;94.80;;;;;;5018353;28;20042;-79
2022/02/25 00:44:04;;;;;;;16.08;1.58;;;6.20;94.90;;;;;;5018421;28;20026;-79
2022/02/25 00:46:30;;;;;;;12.15;1.42;;;6.20;95.00;;;;;;5003165;28;20026;-82
2022/02/25 00:48:56;;;;;;;7.35;1.50;;;6.20;95.00;;;;;;5021860;28;20030;-82
2022/02/25 00:51:21;;;;;;;6.45;1.30;;;6.10;95.10;;;;;;5020273;28;20046;-80
2022/02/25 00:53:48;;;;;;;10.95;1.58;;;6.00;95.00;;;;;;5017908;28;20037;-81
2022/02/25 00:56:14;;;;;;;6.85;1.48;;;6.10;95.10;;;;;;5017616;28;20294;-80
2022/02/25 00:58:39;;;;;;;10.70;1.42;;;6.00;95.10;;;;;;5019054;28;20061;-80
2022/02/25 01:01:08;;;;;;;8.65;1.30;;;6.00;95.00;;;;;;5018671;28;20463;-81
2022/02/25 01:03:35;;;;;;;8.25;1.50;;;6.10;95.00;;;;;;5019207;28;20026;-79
2022/02/25 01:06:00;;;;;;;4.05;0.90;;;6.20;94.90;;;;;;5020962;28;20107;-80
2022/02/25 01:08:26;;;;;;;6.28;1.10;;;6.20;94.90;;;;;;5020408;28;20038;-82
2022/02/25 01:10:51;;;;;;;4.97;1.08;;;6.30;94.80;;;;;;5015782;28;20564;-81
2022/02/25 01:13:17;;;;;;;4.38;0.93;;;6.10;94.80;;;;;;5014143;28;20464;-81
2022/02/25 01:15:43;;;;;;;4.93;1.30;;;6.30;94.80;;;;;;5015066;28;20321;-80
2022/02/25 01:18:08;;;;;;;9.18;1.25;;;6.30;94.60;;;;;;5014978;28;20030;-80
2022/02/25 01:20:34;;;;;;;13.27;2.63;;;6.20;94.70;;;;;;4996516;28;20392;-79
2022/02/25 01:23:00;;;;;;;6.88;1.02;;;6.20;94.70;;;;;;5013847;28;20057;-81
2022/02/25 01:25:25;;;;;;;3.70;0.98;;;6.20;94.60;;;;;;5014792;28;20037;-82
2022/02/25 01:27:51;;;;;;;6.30;1.30;;;6.10;94.70;;;;;;5014294;28;20033;-82
2022/02/25 01:30:17;;;;;;;7.75;1.27;;;6.10;94.90;;;;;;5013884;28;20050;-82
2022/02/25 01:32:43;;;;;;;4.53;1.20;;;6.20;94.80;;;;;;5014122;28;20038;-81
2022/02/25 01:35:09;;;;;;;4.68;1.20;;;6.20;94.70;;;;;;5013782;28;20038;-81
2022/02/25 01:37:35;;;;;;;8.13;1.20;;;6.20;94.60;;;;;;4996718;28;20041;-81
2022/02/25 01:40:00;;;;;;;5.18;1.25;;;6.10;94.70;;;;;;5023300;28;20499;-81
2022/02/25 01:42:26;;;;;;;5.90;1.48;;;6.20;94.70;;;;;;5024025;28;20356;-82
2022/02/25 01:44:53;;;;;;;5.78;0.93;;;6.00;94.70;;;;;;5001763;28;20520;-81
2022/02/25 01:47:18;;;;;;;8.20;1.77;;;6.00;94.60;;;;;;5016736;28;20036;-81
2022/02/25 01:49:44;;;;;;;8.65;1.63;;;6.00;94.60;;;;;;5017637;28;20097;-81
2022/02/25 01:52:14;;;;;;;9.77;2.28;;;6.00;94.50;;;;;;5020835;28;20447;-81
2022/02/25 01:54:45;;;;;;;5.20;1.75;;;6.10;94.50;;;;;;5022498;28;20022;-81
2022/02/25 01:57:13;;;;;;;9.35;1.63;;;6.00;94.30;;;;;;5026582;28;20022;-81
2022/02/25 01:59:41;;;;;;;5.30;1.58;;;6.00;94.30;;;;;;5012470;28;20045;-81
2022/02/25 02:02:07;;;;;;;11.13;1.70;;;5.90;94.40;;;;;;5027861;28;20034;-81
2022/02/25 02:04:32;;;;;;;5.82;1.38;;;5.90;94.40;;;;;;5022187;28;20092;-80
2022/02/25 02:06:59;;;;;;;8.43;1.83;;;5.90;94.50;;;;;;4997017;28;20087;-80
2022/02/25 02:09:25;;;;;;;8.73;1.90;;;5.80;94.60;;;;;;4996250;28;20387;-80
2022/02/25 02:11:53;;;;;;;6.93;1.83;;;5.90;94.50;;;;;;5012704;28;20030;-80
2022/02/25 02:14:22;;;;;;;7.30;2.00;;;5.90;94.50;;;;;;5012148;28;20498;-80
2022/02/25 02:16:51;;;;;;;7.63;2.08;;;5.90;94.30;;;;;;5012560;28;20034;-81
2022/02/25 02:19:17;;;;;;;11.95;2.03;;;5.90;94.40;;;;;;5012995;28;20030;-79
2022/02/25 02:21:48;;;;;;;5.13;1.85;;;5.80;94.40;;;;;;5012106;28;20036;-79
2022/02/25 02:24:14;;;;;;;9.77;1.83;;;5.80;94.60;;;;;;5023383;28;20109;-80
2022/02/25 02:26:44;;;;;;;9.68;1.88;;;5.80;94.60;;;;;;5026375;28;20022;-80
2022/02/25 02:29:10;;;;;;;10.77;1.92;;;5.80;94.60;;;;;;5023465;28;20080;-81
2022/02/25 02:31:36;;;;;;;6.85;2.60;;;5.90;94.60;;;;;;5021465;28;20053;-77
2022/02/25 02:34:03;;;;;;;6.95;1.92;;;5.90;94.60;;;;;;4997653;28;20029;-79
2022/02/25 02:36:28;;;;;;;7.22;2.10;;;5.70;94.70;;;;;;5024773;28;20041;-77
2022/02/25 02:38:54;;;;;;;6.70;2.13;;;5.80;94.70;;;;;;5031281;28;20099;-79
2022/02/25 02:41:20;;;;;;;7.07;2.17;;;5.80;94.80;;;;;;5013575;28;20034;-79
2022/02/25 02:43:46;;;;;;;5.03;2.05;;;5.70;94.80;;;;;;5031365;28;20095;-80
2022/02/25 02:46:13;;;;;;;7.28;2.47;;;5.70;94.90;;;;;;5031104;28;20033;-78
2022/02/25 02:48:40;;;;;;;6.05;2.65;;;5.70;94.80;;;;;;5031117;28;20029;-77
2022/02/25 02:51:07;;;;;;;8.93;1.90;;;5.70;94.70;;;;;;5031847;28;20025;-78
2022/02/25 02:53:33;;;;;;;9.88;2.47;;;5.60;94.90;;;;;;5031360;28;20034;-80
2022/02/25 02:55:58;;;;;;;5.82;2.33;;;5.70;94.80;;;;;;5031370;28;20038;-79
2022/02/25 02:58:24;;;;;;;9.13;2.00;;;5.60;94.90;;;;;;5031253;28;20459;-78
2022/02/25 03:00:50;;;;;;;5.07;2.30;;;5.70;94.90;;;;;;5014676;28;20025;-79
2022/02/25 03:03:17;;;;;;;7.63;2.30;;;5.70;94.80;;;;;;5031665;28;20112;-79
2022/02/25 03:05:43;;;;;;;6.70;2.15;;;5.60;94.80;;;;;;5033367;28;20033;-81
2022/02/25 03:08:10;;;;;;;8.60;2.58;;;5.60;94.70;;;;;;5014791;28;20080;-81
2022/02/25 03:10:37;;;;;;;4.93;2.67;;;5.60;94.60;;;;;;5033496;28;20036;-79
2022/02/25 03:13:05;;;;;;;7.93;2.08;;;5.50;94.70;;;;;;5032442;28;20041;-78
2022/02/25 03:15:36;;;;;;;16.33;2.88;;;5.50;94.70;;;;;;5034140;28;20027;-79
2022/02/25 03:18:03;;;;;;;7.32;2.40;;;5.40;94.90;;;;;;5034892;28;20072;-80
2022/02/25 03:20:28;;;;;;;7.65;2.33;;;5.40;94.90;;;;;;5033034;28;20021;-79
2022/02/25 03:22:55;;;;;;;7.72;2.60;;;5.50;94.80;;;;;;5032859;28;20136;-80
2022/02/25 03:25:21;;;;;;;8.20;2.92;;;5.50;94.80;;;;;;5032558;28;20370;-80
2022/02/25 03:27:47;;;;;;;8.13;2.85;;;5.60;94.80;;;;;;5032886;28;20041;-79
2022/02/25 03:30:13;;;;;;;12.25;3.22;;;5.60;94.60;;;;;;5033740;28;20033;-81
2022/02/25 03:32:39;;;;;;;7.90;2.95;;;5.60;94.60;;;;;;5033189;28;20029;-78
2022/02/25 03:35:06;;;;;;;9.48;3.28;;;5.50;94.60;;;;;;5030477;28;20523;-78
2022/02/25 03:37:31;;;;;;;5.40;3.10;;;5.60;94.60;;;;;;5013132;28;20437;-81
2022/02/25 03:39:58;;;;;;;9.35;3.53;;;5.60;94.50;;;;;;5013168;28;20041;-79
2022/02/25 03:42:23;;;;;;;10.52;3.05;;;5.70;94.60;;;;;;5031449;28;20080;-79
2022/02/25 03:44:50;;;;;;;8.73;3.50;;;5.60;94.60;;;;;;5030609;28;20493;-79
2022/02/25 03:47:16;;;;;;;7.95;3.67;;;5.70;94.60;;;;;;5030550;28;20045;-81
2022/02/25 03:49:43;;;;;;;5.82;3.30;;;5.70;94.60;;;;;;5030798;28;20116;-80
2022/02/25 03:52:08;;;;;;;8.43;3.15;;;5.70;94.60;;;;;;5030628;28;20414;-79
2022/02/25 03:54:34;;;;;;;14.30;3.92;;;5.70;94.50;;;;;;5030489;28;20049;-78
2022/02/25 03:57:00;;;;;;;11.80;3.72;;;5.70;94.50;;;;;;5030866;28;20192;-80
2022/02/25 03:59:26;;;;;;;12.85;3.60;;;5.70;94.40;;;;;;5013034;28;20056;-79
2022/02/25 04:01:52;;;;;;;16.70;4.28;;;5.70;94.50;;;;;;5030517;28;20029;-78
2022/02/25 04:04:25;;;;;;;10.30;4.10;;;5.70;94.40;;;;;;5030530;28;20025;-78
2022/02/25 04:06:51;;;;;;;14.25;4.10;;;5.80;94.30;;;;;;5012797;28;20026;-79
2022/02/25 04:09:18;;;;;;;9.65;3.33;;;5.80;94.30;;;;;;5013414;28;20025;-79
2022/02/25 04:11:48;;;;;;;9.47;3.33;;;5.80;94.30;;;;;;5030406;28;20375;-79
2022/02/25 04:14:15;;;;;;;6.78;3.42;;;5.90;94.30;;;;;;5031622;28;20026;-80
2022/02/25 04:16:42;;;;;;;11.87;3.33;;;5.70;94.30;;;;;;5034138;28;20030;-81
2022/02/25 04:19:08;;;;;;;7.82;3.70;;;5.80;94.20;;;;;;5034207;28;20266;-80
2022/02/25 04:21:34;;;;;;;12.45;3.50;;;5.80;94.20;;;;;;5033784;28;20026;-79
2022/02/25 04:23:59;;;;;;;8.05;3.70;;;5.80;94.20;;;;;;5034293;28;20040;-80
2022/02/25 04:26:25;;;;;;;12.80;3.95;;;5.80;94.00;;;;;;5033768;28;20022;-80
2022/02/25 04:28:50;;;;;;;6.57;3.72;;;5.90;94.00;;;;;;5033786;28;20033;-79
2022/02/25 04:31:17;;;;;;;9.07;3.55;;;5.80;94.00;;;;;;5033790;28;20359;-79
2022/02/25 04:33:42;;;;;;;9.18;4.63;;;5.90;94.00;;;;;;5033451;28;20033;-79
2022/02/25 04:36:08;;;;;;;12.77;3.88;;;5.90;94.20;;;;;;5034009;28;20107;-81
2022/02/25 04:38:34;;;;;;;15.38;3.47;;;5.90;93.90;;;;;;5033703;28;20135;-80
2022/02/25 04:41:01;;;;;;;11.38;2.92;;;5.90;93.80;;;;;;5033682;28;20054;-80
2022/02/25 04:43:28;;;;;;;8.40;2.88;;;5.90;93.80;;;;;;5016011;28;20043;-80
2022/02/25 04:45:54;;;;;;;11.88;3.35;;;5.90;93.90;;;;;;5033467;28;20025;-79
2022/02/25 04:48:20;;;;;;;16.73;3.75;;;5.90;93.80;;;;;;5034037;28;20040;-81
2022/02/25 04:50:46;;;;;;;12.43;4.03;;;6.00;93.80;;;;;;5033276;28;20030;-81
2022/02/25 04:53:12;;;;;;;12.23;3.40;;;6.00;93.70;;;;;;5033279;28;20072;-79
2022/02/25 04:55:37;;;;;;;13.32;2.90;;;6.00;93.70;;;;;;5033381;28;20360;-80
2022/02/25 04:58:03;;;;;;;8.88;3.35;;;6.00;93.70;;;;;;5015674;28;20080;-79
2022/02/25 05:00:29;;;;;;;8.13;3.80;;;6.00;93.60;;;;;;5033725;28;20163;-79
2022/02/25 05:02:54;;;;;;;9.40;3.60;;;6.00;93.60;;;;;;5033259;28;20123;-80
2022/02/25 05:05:20;;;;;;;13.75;3.63;;;6.00;93.50;;;;;;5033498;28;20096;-80
2022/02/25 05:07:46;;;;;;;11.65;3.50;;;6.00;93.60;;;;;;5033161;28;20038;-78
2022/02/25 05:10:12;;;;;;;12.75;3.28;;;6.00;93.60;;;;;;5015547;28;20033;-78
2022/02/25 05:12:38;;;;;;;12.13;3.28;;;6.00;93.60;;;;;;5015356;28;20349;-80
2022/02/25 05:20:33;;;;;;;14.20;3.53;;;6.10;93.70;;;;;;5032838;28;20048;-78
2022/02/25 05:23:00;;;;;;;12.45;3.70;;;6.00;93.60;;;;;;5032573;28;20033;-78
2022/02/25 05:25:27;;;;;;;13.45;3.30;;;6.00;93.80;;;;;;5032019;28;20063;-80
2022/02/25 05:27:53;;;;;;;10.18;3.00;;;5.90;93.80;;;;;;5032967;28;20412;-79
2022/02/25 05:30:20;;;;;;;7.32;2.85;;;5.90;93.90;;;;;;5015763;28;20070;-79
2022/02/25 05:32:47;;;;;;;15.02;3.00;;;5.90;93.90;;;;;;5014963;28;20362;-80
2022/02/25 05:35:13;;;;;;;17.98;3.00;;;6.00;94.00;;;;;;5032669;28;20033;-78
2022/02/25 05:37:40;;;;;;;9.57;2.95;;;5.90;94.00;;;;;;5032485;28;20048;-79
2022/02/25 05:40:07;;;;;;;13.37;3.07;;;5.90;93.90;;;;;;5015478;28;20030;-81
2022/02/25 05:42:34;;;;;;;10.88;3.28;;;6.00;93.90;;;;;;5032645;28;20290;-81
2022/02/25 05:45:00;;;;;;;17.15;2.83;;;6.00;94.00;;;;;;5032982;28;20029;-80
2022/02/25 05:47:27;;;;;;;11.63;3.33;;;5.90;94.00;;;;;;5032504;28;20037;-81
2022/02/25 05:49:53;;;;;;;10.23;2.67;;;5.90;94.10;;;;;;5032104;28;20470;-81
2022/02/25 05:52:19;;;;;;;11.90;2.70;;;6.00;94.10;;;;;;5032440;28;20069;-80
2022/02/25 05:54:44;;;;;;;10.80;3.50;;;5.90;94.10;;;;;;5032177;28;20106;-80
2022/02/25 05:57:10;;;;;;;18.80;3.72;;;5.90;94.20;;;;;;5032501;28;20021;-78
2022/02/25 05:59:36;;;;;;;13.85;2.97;;;5.80;94.30;;;;;;5031942;28;20030;-80
2022/02/25 06:02:02;;;;;;;14.25;3.28;;;5.80;94.30;;;;;;5031793;28;20026;-80
2022/02/25 06:04:28;;;;;;;10.20;3.00;;;5.70;94.30;;;;;;5031902;28;20470;-80
2022/02/25 06:06:53;;;;;;;8.88;3.28;;;5.80;94.30;;;;;;5014569;28;20376;-80
2022/02/25 06:09:19;;;;;;;14.73;3.75;;;5.70;94.40;;;;;;5032260;28;20094;-80
2022/02/25 06:11:44;;;;;;;10.35;3.00;;;5.70;94.40;;;;;;5031642;28;20076;-79
2022/02/25 06:14:11;;;;;;;10.35;3.30;;;5.80;94.40;;;;;;5031699;28;20052;-81
2022/02/25 06:16:37;;;;;;;13.68;3.55;;;5.80;94.40;;;;;;5031674;28;20036;-79
2022/02/25 06:19:02;;;;;;;15.30;3.47;;;5.80;94.30;;;;;;5031699;28;20534;-80
2022/02/25 06:21:28;;;;;;;10.77;3.20;;;5.80;94.40;;;;;;5032111;28;20025;-79
2022/02/25 06:23:54;;;;;;;13.00;2.88;;;5.70;94.50;;;;;;5031702;28;20087;-78
2022/02/25 06:26:19;;;;;;;10.45;3.10;;;5.80;94.50;;;;;;5031484;28;20091;-80
2022/02/25 06:28:45;;;;;;;14.30;3.90;;;5.80;94.40;;;;;;5031466;28;20036;-80
2022/02/25 06:31:10;;;;;;;14.13;2.60;;;5.80;94.50;;;;;;5031337;28;20707;-80
2022/02/25 06:33:36;;;;;;;6.85;3.17;;;5.80;94.40;;;;;;5031280;28;20036;-78
2022/02/25 06:36:02;;;;;;;15.95;3.20;;;5.80;94.50;;;;;;5031794;28;20068;-79
2022/02/25 06:38:27;;;;;;;9.75;3.47;;;5.80;94.50;;;;;;5030405;28;20041;-78
2022/02/25 06:40:53;;;;;;;11.98;3.13;;;5.80;94.50;;;;;;5031090;28;20367;-79
2022/02/25 06:43:19;;;;;;;13.60;3.45;;;5.80;94.40;;;;;;5031294;28;20324;-80
2022/02/25 06:45:45;;;;;;;14.18;3.88;;;5.80;94.40;;;;;;5031070;28;20022;-78
2022/02/25 06:48:10;;;;;;;7.68;2.50;;;5.70;94.60;;;;;;5031382;28;20021;-79
2022/02/25 06:50:36;;;;;;;18.35;3.47;;;5.80;94.70;;;;;;5031022;28;20029;-78
2022/02/25 06:53:02;;;;;;;14.18;3.38;;;5.70;94.60;;;;;;5030871;28;20057;-78
2022/02/25 06:55:28;;;;;;;10.68;3.40;;;5.80;94.60;;;;;;5030968;28;20037;-78
2022/02/25 06:57:54;;;;;;;14.25;3.50;;;5.80;94.50;;;;;;5030982;28;20025;-79
2022/02/25 07:00:23;;;;;;;14.25;3.28;;;5.80;94.50;;;;;;5031456;28;20021;-78
2022/02/25 07:02:50;;;;;;;12.32;3.35;;;5.70;94.40;;;;;;5030788;28;20041;-80
2022/02/25 07:05:16;;;;;;;12.35;3.58;;;5.80;94.40;;;;;;5030811;28;20317;-80
2022/02/25 07:07:42;;;;;;;16.63;4.40;;;5.90;94.40;;;;;;5030721;28;20026;-76
2022/02/25 07:10:08;;;;;;;13.00;2.88;;;5.90;94.40;;;;;;5030762;28;20430;-78
2022/02/25 07:12:33;;;;;;;12.43;3.05;;;5.80;94.50;;;;;;5030430;28;20021;-77
2022/02/25 07:14:59;;;;;;;10.77;3.75;;;5.80;94.50;;;;;;5014208;28;20033;-80
2022/02/25 07:17:25;;;;;;;11.27;2.70;;;5.90;94.40;;;;;;5030942;28;20425;-81
2022/02/25 07:19:50;;;;;;;20.70;3.35;;;5.90;94.40;;;;;;5030831;28;20072;-81
2022/02/25 07:22:16;;;;;;;19.00;4.10;;;5.80;94.30;;;;;;5032727;28;20057;-79
2022/02/25 07:24:41;;;;;;;8.73;2.90;;;5.90;94.40;;;;;;5033236;28;20029;-82
2022/02/25 07:27:08;;;;;;;13.55;2.70;;;5.90;94.40;;;;;;5033393;28;20046;-83
2022/02/25 07:29:39;;;;;;;11.15;2.42;;;6.00;94.30;;;;;;5032354;28;20037;-85
2022/02/25 07:32:05;;;;;;;13.40;2.55;;;6.10;94.20;;;;;;5032437;28;20026;-85
2022/02/25 07:34:31;;;;;;;17.08;3.28;;;6.00;94.20;;;;;;5031953;28;20080;-77
2022/02/25 07:36:56;;;;;;;10.57;2.47;;;6.10;94.10;;;;;;5030279;28;20046;-79
2022/02/25 07:39:22;;;;;;;11.65;2.25;;;6.10;94.00;;;;;;5032875;28;20057;-88
2022/02/25 07:41:50;;;;;;;10.27;2.70;;;6.10;94.00;;;;;;5033655;28;20038;-84
2022/02/25 07:44:16;;;;;;;12.82;2.50;;;6.20;94.00;;;;;;5018235;28;20026;-87
2022/02/25 07:46:41;;;;;;;16.63;2.55;;;6.20;93.90;;;;;;5034986;28;20459;-86
2022/02/25 07:49:07;;;;;;;10.27;2.47;;;6.10;93.90;;;;;;5035426;28;20025;-82
2022/02/25 07:51:35;;;;;;;8.95;2.00;;;6.10;93.70;;;;;;5040664;28;20037;-91
2022/02/25 07:54:03;;;;;;;15.15;2.40;;;6.20;93.80;;;;;;5040282;28;20044;-86
2022/02/25 07:56:30;;;;;;;18.10;2.65;;;6.30;93.70;;;;;;5040085;28;20041;-90
2022/02/25 07:58:56;;;;;;;20.00;3.05;;;6.20;93.90;;;;;;5037968;28;20121;-77
2022/02/25 08:01:21;;;;;;;10.15;2.40;;;6.30;93.60;;;;;;5035600;28;20128;-80
2022/02/25 08:03:47;;;;;;;9.20;1.77;;;6.40;93.50;;;;;;5036009;28;20108;-76
2022/02/25 08:06:14;;;;;;;15.43;2.63;;;6.50;93.30;;;;;;5037871;28;20045;-88
2022/02/25 08:08:40;;;;;;;6.65;1.52;;;6.40;93.10;;;;;;5004017;28;20043;-88
2022/02/25 08:11:11;;;;;;;14.32;2.20;;;6.50;93.20;;;;;;4997290;28;20027;-87
2022/02/25 08:13:37;;;;;;;14.35;2.33;;;6.60;93.10;;;;;;4998455;28;20172;-88
2022/02/25 08:16:12;;;;;;;24.60;2.63;;;6.70;93.00;;;;;;4999369;28;20058;-76
2022/02/25 08:18:38;;;;;;;10.80;2.58;;;6.80;93.10;;;;;;4998629;28;20026;-88
2022/02/25 08:21:18;;;;;;;8.40;1.83;;;6.80;92.70;;;;;;5000693;28;20018;-87
2022/02/25 08:23:44;;;;;;;8.30;2.20;;;6.90;92.70;;;;;;4999393;28;20450;-82
2022/02/25 08:26:10;;;;;;;10.38;2.20;;;6.90;92.50;;;;;;4998205;28;20030;-82
2022/02/25 08:28:36;;;;;;;16.48;3.20;;;6.90;92.50;;;;;;4997774;28;20034;-84
2022/02/25 08:31:02;;;;;;;12.32;2.70;;;6.70;92.40;;;;;;4998841;28;20085;-87
2022/02/25 08:33:29;;;;;;;14.27;3.10;;;6.80;92.70;;;;;;4999712;28;20408;-84
2022/02/25 08:35:54;;;;;;;16.42;2.38;;;6.80;92.60;;;;;;4997927;28;20054;-85
2022/02/25 08:38:21;;;;;;;20.90;3.00;;;6.90;92.70;;;;;;4997885;28;20035;-83
2022/02/25 08:40:46;;;;;;;21.00;2.70;;;6.70;92.60;;;;;;4995893;28;20030;-86
2022/02/25 08:43:12;;;;;;;13.63;2.63;;;6.80;92.80;;;;;;5000234;28;20061;-84
2022/02/25 08:45:41;;;;;;;16.13;2.70;;;6.90;92.70;;;;;;5014260;28;20120;-81
2022/02/25 08:48:07;;;;;;;17.67;2.53;;;7.00;92.70;;;;;;5015848;28;20049;-86
2022/02/25 08:50:32;;;;;;;7.18;2.28;;;6.90;92.60;;;;;;5020718;28;20044;-86
2022/02/25 08:52:58;;;;;;;11.95;2.60;;;7.00;92.60;;;;;;5015265;28;20026;-87
2022/02/25 08:55:24;;;;;;;18.15;2.75;;;7.00;92.60;;;;;;5021939;28;20065;-88
2022/02/25 08:57:50;;;;;;;11.80;2.88;;;6.90;92.50;;;;;;5016687;28;20030;-85
2022/02/25 09:00:18;;;;;;;15.02;1.80;;;7.10;92.60;;;;;;5015043;28;20026;-86
2022/02/25 09:02:46;;;;;;;;;;;7.20;92.40;;;;;;5017608;28;20037;-90
2022/02/25 09:05:12;;;;;;;11.07;2.60;;;7.20;92.30;;;;;;5016354;28;20365;-79
2022/02/25 09:07:37;;;;;;;14.23;2.65;;;7.20;92.40;;;;;;5015001;28;20022;-79
2022/02/25 09:10:04;;;;;;;19.98;2.67;;;7.20;92.30;;;;;;5015094;28;20022;-79
2022/02/25 09:12:33;;;;;;;21.37;2.93;;;7.30;92.30;;;;;;4997865;28;20116;-85
2022/02/25 09:14:59;;;;;;;8.50;2.20;;;7.30;92.10;;;;;;5014467;28;20037;-85
2022/02/25 09:17:26;;;;;;;20.70;3.38;;;7.30;92.30;;;;;;5014011;28;20081;-86
2022/02/25 09:19:52;;;;;;;14.52;2.83;;;7.20;92.20;;;;;;5015271;28;20030;-74
2022/02/25 09:22:19;;;;;;;13.38;2.38;;;7.20;92.30;;;;;;5014688;28;20038;-77
2022/02/25 09:24:44;;;;;;;16.58;3.35;;;7.30;92.20;;;;;;5014560;28;20034;-74
2022/02/25 09:27:10;;;;;;;10.02;2.92;;;7.30;92.30;;;;;;5014066;28;20028;-80
2022/02/25 09:29:36;;;;;;;11.95;2.33;;;7.30;92.30;;;;;;5011323;28;20463;-78
2022/02/25 09:32:04;;;;;;;13.80;4.53;;;7.20;92.30;;;;;;5014607;28;20309;-83
2022/02/25 09:34:29;;;;;;;16.45;3.33;;;7.20;92.30;;;;;;4997608;28;20364;-83
2022/02/25 09:36:55;;;;;;;15.95;3.67;;;7.20;92.30;;;;;;5015044;28;20084;-76
2022/02/25 09:39:21;;;;;;;11.60;3.00;;;7.20;92.50;;;;;;5014866;28;20088;-82
2022/02/25 09:41:48;;;;;;;17.63;2.90;;;7.20;92.60;;;;;;5015111;28;20034;-83
2022/02/25 09:44:15;;;;;;;16.92;3.30;;;7.10;92.80;;;;;;5014217;28;20030;-83
2022/02/25 09:46:43;;;;;;;9.57;2.38;;;7.20;93.00;;;;;;5013249;28;20026;-80
2022/02/25 09:49:09;;;;;;;19.85;3.28;;;7.10;93.20;;;;;;5012915;28;20029;-83
2022/02/25 09:51:36;;;;;;;14.68;2.72;;;7.00;93.40;;;;;;5013520;28;20025;-84
2022/02/25 09:54:03;;;;;;;14.88;2.72;;;6.70;93.70;;;;;;4996961;28;20353;-89
2022/02/25 09:56:29;;;;;;;16.80;2.95;;;6.80;94.00;;;;;;5013902;28;20432;-83
2022/02/25 09:58:57;;;;;;;20.95;3.60;;;6.80;94.10;;;;;;5012838;28;20064;-81
2022/02/25 10:01:29;;;;;;;12.07;2.83;;;6.90;94.30;;;;;;4992384;28;20038;-80
2022/02/25 10:03:54;;;;;;;16.08;2.50;;;6.90;94.40;;;;;;4995567;28;20101;-82
2022/02/25 10:06:29;;;;;;;13.32;2.65;;;6.90;94.50;;;;;;4994947;28;20037;-77
2022/02/25 10:09:00;;;;;;;11.73;2.97;;;6.80;94.70;;;;;;4977317;28;20035;-79
2022/02/25 10:11:27;;;;;;;13.50;2.22;;;6.80;94.80;;;;;;4993201;28;20121;-80
2022/02/25 10:14:10;;;;;;;13.07;3.25;;;6.80;94.70;;;;;;4992853;28;20468;-80
2022/02/25 10:16:36;;;;;;;13.68;2.40;;;6.80;94.80;;;;;;4997762;28;20038;-78
2022/02/25 10:19:01;;;;;;;16.60;2.92;;;6.90;94.80;;;;;;4976274;28;20515;-81
2022/02/25 10:21:27;;;;;;;8.73;2.85;;;6.80;94.90;;;;;;4994746;28;20457;-85
2022/02/25 10:23:52;;;;;;;13.18;3.30;;;6.80;95.10;;;;;;4994607;28;20030;-82
2022/02/25 10:26:20;;;;;;;12.68;3.13;;;6.80;95.10;;;;;;4994779;28;20491;-82
2022/02/25 10:28:56;;;;;;;20.52;3.47;;;6.90;95.10;;;;;;4994593;28;20376;-80
2022/02/25 10:31:30;;;;;;;14.98;3.33;;;6.90;94.90;;;;;;4994009;28;20026;-80
2022/02/25 10:34:01;;;;;;;19.70;3.42;;;6.90;94.90;;;;;;4994599;28;20030;-82
2022/02/25 10:36:47;;;;;;;14.35;3.03;;;6.80;95.10;;;;;;4996806;28;20045;-82
2022/02/25 10:39:26;;;;;;;14.90;3.00;;;6.80;95.20;;;;;;4995624;28;20031;-84
2022/02/25 10:42:11;;;;;;;18.27;3.20;;;6.90;95.30;;;;;;4994827;28;20041;-84
2022/02/25 10:44:38;;;;;;;16.00;3.13;;;6.90;95.30;;;;;;4977950;28;20117;-82
2022/02/25 10:47:34;;;;;;;14.27;3.70;;;6.90;95.30;;;;;;4994048;28;20464;-82
2022/02/25 10:50:17;;;;;;;13.23;3.40;;;7.00;95.30;;;;;;4993123;28;20461;-84
2022/02/25 10:52:46;;;;;;;12.77;3.15;;;7.00;95.30;;;;;;4992599;28;20034;-86
2022/02/25 10:55:21;;;;;;;14.45;3.42;;;6.90;95.30;;;;;;4976501;28;20362;-81
2022/02/25 10:57:48;;;;;;;13.70;2.88;;;7.00;95.40;;;;;;4992518;28;20038;-85
2022/02/25 11:00:16;;;;;;;13.88;3.63;;;7.00;95.50;;;;;;4993232;28;20035;-87
2022/02/25 11:02:45;;;;;;;8.73;2.90;;;7.20;95.40;;;;;;4993108;28;20108;-85
2022/02/25 11:05:24;;;;;;;11.77;4.07;;;7.60;95.20;;;;;;4992484;28;20050;-77
2022/02/25 11:07:53;;;;;;;13.25;3.60;;;8.30;94.60;;;;;;4974892;28;20057;-79
2022/02/25 11:10:21;;;;;;;16.90;3.10;;;9.20;93.80;;;;;;4993114;28;20035;-84
2022/02/25 11:12:47;;;;;;;8.48;2.38;;;9.70;92.40;;;;;;4992651;28;20471;-81
2022/02/25 11:15:25;;;;;;;10.60;2.65;;;9.80;91.50;;;;;;4992957;28;20034;-86
2022/02/25 11:17:52;;;;;;;13.65;3.30;;;9.90;91.60;;;;;;4993237;28;20057;-78
2022/02/25 11:20:22;;;;;;;16.70;2.93;;;9.70;91.90;;;;;;4991997;28;20096;-80
2022/02/25 11:22:52;;;;;;;11.40;2.90;;;9.90;91.30;;;;;;4992045;28;20077;-81
2022/02/25 11:25:17;;;;;;;12.40;3.33;;;9.70;90.90;;;;;;4995135;28;20110;-78
2022/02/25 11:27:44;;;;;;;11.60;2.88;;;9.70;90.70;;;;;;4995940;28;20118;-82
2022/02/25 11:30:19;;;;;;;15.52;2.50;;;9.60;90.90;;;;;;4996881;28;20030;-86
2022/02/25 11:32:58;;;;;;;8.73;2.72;;;9.80;91.00;;;;;;4997236;28;20027;-87
2022/02/25 11:35:27;;;;;;;12.93;2.40;;;9.30;90.90;;;;;;4998728;28;20381;-87
2022/02/25 11:38:10;;;;;;;7.60;2.28;;;9.40;91.00;;;;;;4980788;28;20092;-89
2022/02/25 11:40:51;;;;;;;8.77;2.42;;;9.60;90.90;;;;;;4999637;28;20447;-87
2022/02/25 11:43:34;;;;;;;13.57;2.42;;;9.70;90.60;;;;;;4999926;28;20057;-94
2022/02/25 11:46:00;;;;;;;9.32;2.20;;;9.50;90.20;;;;;;4999026;28;20034;-84
2022/02/25 11:48:37;;;;;;;8.18;2.22;;;9.40;90.40;;;;;;4996451;28;20030;-74
2022/02/25 11:51:10;;;;;;;13.00;4.40;;;9.00;90.60;;;;;;4995965;28;20042;-78
2022/02/25 11:53:36;;;;;;;6.45;2.47;;;8.80;90.90;;;;;;4995589;28;20134;-83
2022/02/25 11:56:16;;;;;;;16.73;3.65;;;9.00;91.00;;;;;;4995681;28;20125;-82
2022/02/25 11:58:49;;;;;;;10.48;3.05;;;9.00;91.00;;;;;;4996039;28;20034;-82
2022/02/25 12:01:20;;;;;;;8.20;2.42;;;8.50;91.50;;;;;;4996574;28;20041;-87
2022/02/25 12:04:05;;;;;;;10.93;2.30;;;8.50;91.60;;;;;;4996731;28;20022;-84
2022/02/25 12:07:00;;;;;;;12.13;2.40;;;8.30;92.00;;;;;;4980796;28;20018;-80
2022/02/25 12:09:46;;;;;;;11.82;3.17;;;8.40;92.00;;;;;;4992682;28;20066;-82
2022/02/25 12:12:23;;;;;;;7.18;1.85;;;8.40;91.90;;;;;;4995782;28;20108;-83
2022/02/25 12:15:12;;;;;;;19.08;2.63;;;8.60;91.90;;;;;;4998508;28;20034;-89
2022/02/25 12:17:55;;;;;;;18.08;3.95;;;8.40;92.10;;;;;;4982458;28;20031;-89
2022/02/25 12:20:33;;;;;;;6.47;1.70;;;8.70;92.10;;;;;;4999938;28;20448;-87
2022/02/25 12:23:08;;;;;;;12.55;2.85;;;9.00;91.90;;;;;;4999947;28;20422;-87
2022/02/25 12:25:40;;;;;;;9.32;1.98;;;9.30;91.80;;;;;;4982121;28;20026;-80
2022/02/25 12:28:30;;;;;;;6.40;1.75;;;9.40;91.20;;;;;;4978730;28;20042;-82
2022/02/25 12:31:38;;;;;;;8.00;1.63;;;9.50;91.10;;;;;;4991599;28;20034;-87
2022/02/25 12:34:04;;;;;;;11.95;1.88;;;9.60;91.00;;;;;;4976796;28;20089;-83
2022/02/25 12:36:30;;;;;;;10.75;2.03;;;9.40;91.40;;;;;;4990683;28;20057;-83
2022/02/25 12:38:56;;;;;;;11.93;1.83;;;9.60;90.80;;;;;;4997200;28;20113;-81
2022/02/25 12:41:34;;;;;;;10.20;1.90;;;9.60;90.60;;;;;;4999742;28;20035;-92
2022/02/25 12:44:09;;;;;;;7.43;1.65;;;9.60;90.40;;;;;;4998637;28;20037;-86
2022/02/25 12:46:47;;;;;;;12.98;2.30;;;9.50;90.90;;;;;;4979984;28;20029;-89
2022/02/25 12:49:14;;;;;;;;;;;9.50;90.80;;;;;;4997282;28;20482;-86
2022/02/25 12:51:41;;;;;;;7.60;2.45;;;9.40;90.90;;;;;;4995378;28;19914;-81
2022/02/25 12:54:09;;;;;;;12.40;2.08;;;9.40;90.90;;;;;;4994649;28;20054;-75
2022/02/25 12:56:36;;;;;;;;;;;9.30;91.10;;;;;;4994561;28;20035;-79
2022/02/25 12:59:17;;;;;;;9.43;2.30;;;9.40;91.20;;;;;;4996827;28;19909;-86
2022/02/25 13:01:47;;;;;;;12.57;2.15;;;9.20;91.20;;;;;;4997519;28;20042;-86